sensor_id;sensor_type;location;lat;lon;timestamp;pressure;altitude;pressure_sealevel;temperature;humidity
25430;BME280;13360;48.152;-1.788;2024-03-06T00:02:08;101646.69;;;9.73;100.00
25430;BME280;13360;48.152;-1.788;2024-03-06T00:04:34;101651.09;;;9.74;100.00
25430;BME280;13360;48.152;-1.788;2024-03-06T00:06:59;101643.38;;;9.71;100.00
25430;BME280;13360;48.152;-1.788;2024-03-06T00:09:25;101643.91;;;9.63;100.00
25430;BME280;13360;48.152;-1.788;2024-03-06T00:11:52;101681.63;;;10.10;100.00
25430;BME280;13360;48.152;-1.788;2024-03-06T00:14:17;101661.88;;;9.76;100.00
25430;BME280;13360;48.152;-1.788;2024-03-06T00:16:43;101656.88;;;9.73;100.00
25430;BME280;13360;48.152;-1.788;2024-03-06T00:19:08;101659.38;;;9.74;100.00
25430;BME280;13360;48.152;-1.788;2024-03-06T00:21:34;101646.97;;;9.77;100.00
25430;BME280;13360;48.152;-1.788;2024-03-06T00:24:01;101659.66;;;9.73;100.00
25430;BME280;13360;48.152;-1.788;2024-03-06T00:26:26;101661.03;;;9.75;100.00
25430;BME280;13360;48.152;-1.788;2024-03-06T00:28:52;101655.22;;;9.72;100.00
25430;BME280;13360;48.152;-1.788;2024-03-06T00:31:17;101665.41;;;9.66;100.00
25430;BME280;13360;48.152;-1.788;2024-03-06T00:33:43;101668.19;;;9.66;100.00
25430;BME280;13360;48.152;-1.788;2024-03-06T00:36:08;101682.19;;;10.17;100.00
25430;BME280;13360;48.152;-1.788;2024-03-06T00:38:33;101661.19;;;10.06;100.00
25430;BME280;13360;48.152;-1.788;2024-03-06T00:40:59;101671.69;;;9.14;100.00
25430;BME280;13360;48.152;-1.788;2024-03-06T00:43:24;101731.66;;;8.97;100.00
25430;BME280;13360;48.152;-1.788;2024-03-06T00:45:49;101731.00;;;8.85;100.00
25430;BME280;13360;48.152;-1.788;2024-03-06T00:48:14;101736.47;;;8.80;100.00
25430;BME280;13360;48.152;-1.788;2024-03-06T00:50:39;101698.19;;;8.83;100.00
25430;BME280;13360;48.152;-1.788;2024-03-06T00:53:05;101729.28;;;8.79;100.00
25430;BME280;13360;48.152;-1.788;2024-03-06T00:55:31;101746.13;;;8.82;100.00
25430;BME280;13360;48.152;-1.788;2024-03-06T00:57:56;101740.31;;;8.79;100.00
25430;BME280;13360;48.152;-1.788;2024-03-06T01:00:21;101718.19;;;8.74;100.00
25430;BME280;13360;48.152;-1.788;2024-03-06T01:02:47;101713.22;;;8.71;100.00
25430;BME280;13360;48.152;-1.788;2024-03-06T01:05:12;101717.06;;;8.70;100.00
25430;BME280;13360;48.152;-1.788;2024-03-06T01:07:37;101722.56;;;8.70;100.00
25430;BME280;13360;48.152;-1.788;2024-03-06T01:10:03;101723.34;;;8.65;100.00
25430;BME280;13360;48.152;-1.788;2024-03-06T01:12:29;101735.47;;;8.64;100.00
25430;BME280;13360;48.152;-1.788;2024-03-06T01:14:54;101740.09;;;8.59;100.00
25430;BME280;13360;48.152;-1.788;2024-03-06T01:17:19;101746.97;;;8.56;100.00
25430;BME280;13360;48.152;-1.788;2024-03-06T01:19:44;101755.22;;;8.56;100.00
25430;BME280;13360;48.152;-1.788;2024-03-06T01:22:10;101746.13;;;8.55;100.00
25430;BME280;13360;48.152;-1.788;2024-03-06T01:24:35;101750.53;;;8.57;100.00
25430;BME280;13360;48.152;-1.788;2024-03-06T01:27:00;101748.53;;;8.52;100.00
25430;BME280;13360;48.152;-1.788;2024-03-06T01:29:27;101751.91;;;8.54;100.00
25430;BME280;13360;48.152;-1.788;2024-03-06T01:31:53;101741.94;;;8.53;100.00
25430;BME280;13360;48.152;-1.788;2024-03-06T01:34:18;101738.31;;;8.47;100.00
25430;BME280;13360;48.152;-1.788;2024-03-06T01:36:43;101737.69;;;8.40;100.00
25430;BME280;13360;48.152;-1.788;2024-03-06T01:39:09;101754.78;;;8.42;100.00
25430;BME280;13360;48.152;-1.788;2024-03-06T01:41:34;101745.69;;;8.42;100.00
25430;BME280;13360;48.152;-1.788;2024-03-06T01:44:00;101739.88;;;8.38;100.00
25430;BME280;13360;48.152;-1.788;2024-03-06T01:46:25;101744.22;;;8.34;100.00
25430;BME280;13360;48.152;-1.788;2024-03-06T01:48:51;101746.47;;;8.37;100.00
25430;BME280;13360;48.152;-1.788;2024-03-06T01:51:16;101746.78;;;8.41;100.00
25430;BME280;13360;48.152;-1.788;2024-03-06T01:53:41;101739.09;;;8.43;100.00
25430;BME280;13360;48.152;-1.788;2024-03-06T01:56:06;101736.84;;;8.40;100.00
25430;BME280;13360;48.152;-1.788;2024-03-06T01:58:32;101735.97;;;8.34;100.00
25430;BME280;13360;48.152;-1.788;2024-03-06T02:00:58;101730.66;;;8.33;100.00
25430;BME280;13360;48.152;-1.788;2024-03-06T02:03:24;101732.00;;;8.30;100.00
25430;BME280;13360;48.152;-1.788;2024-03-06T02:05:50;101750.19;;;8.31;100.00
25430;BME280;13360;48.152;-1.788;2024-03-06T02:08:15;101750.78;;;8.33;100.00
25430;BME280;13360;48.152;-1.788;2024-03-06T02:10:41;101746.88;;;8.29;100.00
25430;BME280;13360;48.152;-1.788;2024-03-06T02:13:06;101739.69;;;8.28;100.00
25430;BME280;13360;48.152;-1.788;2024-03-06T02:15:31;101744.38;;;8.27;100.00
25430;BME280;13360;48.152;-1.788;2024-03-06T02:17:57;101735.53;;;8.25;100.00
25430;BME280;13360;48.152;-1.788;2024-03-06T02:20:23;101732.78;;;8.25;100.00
25430;BME280;13360;48.152;-1.788;2024-03-06T02:22:48;101721.22;;;8.23;100.00
25430;BME280;13360;48.152;-1.788;2024-03-06T02:25:14;101730.81;;;8.21;100.00
25430;BME280;13360;48.152;-1.788;2024-03-06T02:27:40;101722.56;;;8.21;100.00
25430;BME280;13360;48.152;-1.788;2024-03-06T02:30:05;101728.59;;;8.18;100.00
25430;BME280;13360;48.152;-1.788;2024-03-06T02:32:31;101732.16;;;8.18;100.00
25430;BME280;13360;48.152;-1.788;2024-03-06T02:34:56;101726.66;;;8.18;100.00
25430;BME280;13360;48.152;-1.788;2024-03-06T02:37:21;101718.09;;;8.15;100.00
25430;BME280;13360;48.152;-1.788;2024-03-06T02:39:47;101718.09;;;8.15;100.00
25430;BME280;13360;48.152;-1.788;2024-03-06T02:42:12;101729.69;;;8.17;100.00
25430;BME280;13360;48.152;-1.788;2024-03-06T02:44:37;101729.09;;;8.15;100.00
25430;BME280;13360;48.152;-1.788;2024-03-06T02:47:03;101723.03;;;8.13;100.00
25430;BME280;13360;48.152;-1.788;2024-03-06T02:49:28;101721.34;;;8.12;100.00
25430;BME280;13360;48.152;-1.788;2024-03-06T02:51:53;101731.75;;;8.10;100.00
25430;BME280;13360;48.152;-1.788;2024-03-06T02:54:19;101731.19;;;8.08;100.00
25430;BME280;13360;48.152;-1.788;2024-03-06T02:56:44;101736.97;;;8.06;100.00
25430;BME280;13360;48.152;-1.788;2024-03-06T02:59:09;101723.72;;;8.03;100.00
25430;BME280;13360;48.152;-1.788;2024-03-06T03:01:35;101713.47;;;7.99;100.00
25430;BME280;13360;48.152;-1.788;2024-03-06T03:04:00;101712.59;;;7.93;100.00
25430;BME280;13360;48.152;-1.788;2024-03-06T03:06:25;101728.00;;;7.94;100.00
25430;BME280;13360;48.152;-1.788;2024-03-06T03:08:50;101721.16;;;7.97;100.00
25430;BME280;13360;48.152;-1.788;2024-03-06T03:11:16;101706.00;;;7.94;100.00
25430;BME280;13360;48.152;-1.788;2024-03-06T03:13:41;101702.41;;;7.93;100.00
25430;BME280;13360;48.152;-1.788;2024-03-06T03:16:06;101685.00;;;7.88;100.00
25430;BME280;13360;48.152;-1.788;2024-03-06T03:18:32;101697.41;;;7.90;100.00
25430;BME280;13360;48.152;-1.788;2024-03-06T03:20:57;101700.75;;;7.92;100.00
25430;BME280;13360;48.152;-1.788;2024-03-06T03:23:22;101687.22;;;7.91;100.00
25430;BME280;13360;48.152;-1.788;2024-03-06T03:25:48;101670.94;;;7.84;100.00
25430;BME280;13360;48.152;-1.788;2024-03-06T03:28:14;101664.28;;;7.80;100.00
25430;BME280;13360;48.152;-1.788;2024-03-06T03:30:39;101653.78;;;7.77;100.00
25430;BME280;13360;48.152;-1.788;2024-03-06T03:33:04;101664.53;;;7.79;100.00
25430;BME280;13360;48.152;-1.788;2024-03-06T03:35:29;101668.13;;;7.79;100.00
25430;BME280;13360;48.152;-1.788;2024-03-06T03:37:56;101675.28;;;7.80;100.00
25430;BME280;13360;48.152;-1.788;2024-03-06T03:40:22;101690.69;;;7.81;100.00
25430;BME280;13360;48.152;-1.788;2024-03-06T03:42:47;101698.69;;;7.83;100.00
25430;BME280;13360;48.152;-1.788;2024-03-06T03:45:13;101686.03;;;7.82;100.00
25430;BME280;13360;48.152;-1.788;2024-03-06T03:47:39;101683.28;;;7.82;100.00
25430;BME280;13360;48.152;-1.788;2024-03-06T03:50:04;101673.88;;;7.78;100.00
25430;BME280;13360;48.152;-1.788;2024-03-06T03:52:30;101682.13;;;7.78;100.00
25430;BME280;13360;48.152;-1.788;2024-03-06T03:54:55;101669.41;;;7.72;100.00
25430;BME280;13360;48.152;-1.788;2024-03-06T03:57:20;101664.38;;;7.69;100.00
25430;BME280;13360;48.152;-1.788;2024-03-06T03:59:45;101670.16;;;7.67;100.00
25430;BME280;13360;48.152;-1.788;2024-03-06T04:02:11;101677.75;;;7.60;100.00
25430;BME280;13360;48.152;-1.788;2024-03-06T04:04:36;101684.41;;;7.64;100.00
25430;BME280;13360;48.152;-1.788;2024-03-06T04:07:01;101690.75;;;7.64;100.00
25430;BME280;13360;48.152;-1.788;2024-03-06T04:09:30;101694.06;;;7.67;100.00
25430;BME280;13360;48.152;-1.788;2024-03-06T04:11:55;101691.56;;;7.65;100.00
25430;BME280;13360;48.152;-1.788;2024-03-06T04:14:20;101676.69;;;7.61;100.00
25430;BME280;13360;48.152;-1.788;2024-03-06T04:16:46;101664.28;;;7.58;100.00
25430;BME280;13360;48.152;-1.788;2024-03-06T04:19:11;101675.84;;;7.60;100.00
25430;BME280;13360;48.152;-1.788;2024-03-06T04:21:40;101665.63;;;7.56;100.00
25430;BME280;13360;48.152;-1.788;2024-03-06T04:24:05;101650.06;;;7.45;100.00
25430;BME280;13360;48.152;-1.788;2024-03-06T04:26:30;101670.69;;;7.47;100.00
25430;BME280;13360;48.152;-1.788;2024-03-06T04:28:56;101663.47;;;7.41;100.00
25430;BME280;13360;48.152;-1.788;2024-03-06T04:31:21;101671.16;;;7.39;100.00
25430;BME280;13360;48.152;-1.788;2024-03-06T04:33:46;101676.38;;;7.41;100.00
25430;BME280;13360;48.152;-1.788;2024-03-06T04:36:11;101687.38;;;7.41;100.00
25430;BME280;13360;48.152;-1.788;2024-03-06T04:38:37;101686.63;;;7.45;100.00
25430;BME280;13360;48.152;-1.788;2024-03-06T04:41:04;101683.88;;;7.45;100.00
25430;BME280;13360;48.152;-1.788;2024-03-06T04:43:29;101687.44;;;7.46;100.00
25430;BME280;13360;48.152;-1.788;2024-03-06T04:45:55;101697.63;;;7.45;100.00
25430;BME280;13360;48.152;-1.788;2024-03-06T04:48:20;101686.88;;;7.44;100.00
25430;BME280;13360;48.152;-1.788;2024-03-06T04:50:45;101692.88;;;7.41;100.00
25430;BME280;13360;48.152;-1.788;2024-03-06T04:53:10;101693.47;;;7.43;100.00
25430;BME280;13360;48.152;-1.788;2024-03-06T04:55:36;101683.28;;;7.43;100.00
25430;BME280;13360;48.152;-1.788;2024-03-06T04:58:02;101673.88;;;7.39;100.00
25430;BME280;13360;48.152;-1.788;2024-03-06T05:00:27;101671.97;;;7.40;100.00
25430;BME280;13360;48.152;-1.788;2024-03-06T05:02:54;101681.63;;;7.42;100.00
25430;BME280;13360;48.152;-1.788;2024-03-06T05:05:20;101667.56;;;7.39;100.00
25430;BME280;13360;48.152;-1.788;2024-03-06T05:07:46;101670.00;;;7.35;100.00
25430;BME280;13360;48.152;-1.788;2024-03-06T05:10:11;101684.56;;;7.36;100.00
25430;BME280;13360;48.152;-1.788;2024-03-06T05:12:36;101686.72;;;7.33;100.00
25430;BME280;13360;48.152;-1.788;2024-03-06T05:15:02;101674.59;;;7.29;100.00
25430;BME280;13360;48.152;-1.788;2024-03-06T05:17:28;101697.63;;;7.28;100.00
25430;BME280;13360;48.152;-1.788;2024-03-06T05:19:53;101691.06;;;7.29;100.00
25430;BME280;13360;48.152;-1.788;2024-03-06T05:22:19;101691.06;;;7.29;100.00
25430;BME280;13360;48.152;-1.788;2024-03-06T05:24:44;101699.91;;;7.31;100.00
25430;BME280;13360;48.152;-1.788;2024-03-06T05:27:10;101707.63;;;7.34;100.00
25430;BME280;13360;48.152;-1.788;2024-03-06T05:29:38;101705.66;;;7.30;100.00
25430;BME280;13360;48.152;-1.788;2024-03-06T05:32:03;101702.06;;;7.29;100.00
25430;BME280;13360;48.152;-1.788;2024-03-06T05:34:29;101701.25;;;7.29;100.00
25430;BME280;13360;48.152;-1.788;2024-03-06T05:36:54;101695.38;;;7.25;100.00
25430;BME280;13360;48.152;-1.788;2024-03-06T05:39:20;101711.88;;;7.25;100.00
25430;BME280;13360;48.152;-1.788;2024-03-06T05:41:45;101720.22;;;7.30;100.00
25430;BME280;13360;48.152;-1.788;2024-03-06T05:44:10;101721.06;;;7.31;100.00
25430;BME280;13360;48.152;-1.788;2024-03-06T05:46:36;101728.22;;;7.32;100.00
25430;BME280;13360;48.152;-1.788;2024-03-06T05:49:01;101732.31;;;7.29;100.00
25430;BME280;13360;48.152;-1.788;2024-03-06T05:51:27;101729.78;;;7.28;100.00
25430;BME280;13360;48.152;-1.788;2024-03-06T05:53:52;101729.78;;;7.28;100.00
25430;BME280;13360;48.152;-1.788;2024-03-06T05:56:18;101736.59;;;7.25;100.00
25430;BME280;13360;48.152;-1.788;2024-03-06T05:58:43;101732.78;;;7.26;100.00
25430;BME280;13360;48.152;-1.788;2024-03-06T06:01:11;101741.28;;;7.25;100.00
25430;BME280;13360;48.152;-1.788;2024-03-06T06:03:36;101746.44;;;7.21;100.00
25430;BME280;13360;48.152;-1.788;2024-03-06T06:06:01;101757.19;;;7.23;100.00
25430;BME280;13360;48.152;-1.788;2024-03-06T06:08:27;101749.78;;;7.23;100.00
25430;BME280;13360;48.152;-1.788;2024-03-06T06:10:53;101751.09;;;7.21;100.00
25430;BME280;13360;48.152;-1.788;2024-03-06T06:13:20;101748.09;;;7.22;100.00
25430;BME280;13360;48.152;-1.788;2024-03-06T06:15:46;101754.09;;;7.19;100.00
25430;BME280;13360;48.152;-1.788;2024-03-06T06:18:11;101743.38;;;7.18;100.00
25430;BME280;13360;48.152;-1.788;2024-03-06T06:20:36;101733.97;;;7.14;100.00
25430;BME280;13360;48.152;-1.788;2024-03-06T06:23:02;101730.06;;;7.10;100.00
25430;BME280;13360;48.152;-1.788;2024-03-06T06:25:27;101752.03;;;7.10;100.00
25430;BME280;13360;48.152;-1.788;2024-03-06T06:27:52;101746.28;;;7.11;100.00
25430;BME280;13360;48.152;-1.788;2024-03-06T06:30:17;101742.59;;;7.06;100.00
25430;BME280;13360;48.152;-1.788;2024-03-06T06:32:43;101750.59;;;7.07;100.00
25430;BME280;13360;48.152;-1.788;2024-03-06T06:35:08;101754.78;;;7.10;100.00
25430;BME280;13360;48.152;-1.788;2024-03-06T06:37:34;101744.03;;;7.08;100.00
25430;BME280;13360;48.152;-1.788;2024-03-06T06:40:00;101732.94;;;7.03;100.00
25430;BME280;13360;48.152;-1.788;2024-03-06T06:42:25;101727.94;;;7.00;100.00
25430;BME280;13360;48.152;-1.788;2024-03-06T06:44:50;101735.63;;;6.98;100.00
25430;BME280;13360;48.152;-1.788;2024-03-06T06:47:16;101736.13;;;6.95;100.00
25430;BME280;13360;48.152;-1.788;2024-03-06T06:49:41;101738.63;;;6.96;100.00
25430;BME280;13360;48.152;-1.788;2024-03-06T06:52:06;101747.69;;;6.97;100.00
25430;BME280;13360;48.152;-1.788;2024-03-06T06:54:32;101750.19;;;6.98;100.00
25430;BME280;13360;48.152;-1.788;2024-03-06T06:56:57;101751.75;;;6.94;100.00
25430;BME280;13360;48.152;-1.788;2024-03-06T06:59:23;101766.56;;;6.93;100.00
25430;BME280;13360;48.152;-1.788;2024-03-06T07:01:48;101770.66;;;6.91;100.00
25430;BME280;13360;48.152;-1.788;2024-03-06T07:04:13;101778.31;;;6.89;100.00
25430;BME280;13360;48.152;-1.788;2024-03-06T07:06:41;101786.38;;;6.95;100.00
25430;BME280;13360;48.152;-1.788;2024-03-06T07:09:06;101778.47;;;6.99;100.00
25430;BME280;13360;48.152;-1.788;2024-03-06T07:11:34;101775.41;;;6.95;100.00
25430;BME280;13360;48.152;-1.788;2024-03-06T07:13:59;101774.31;;;6.96;100.00
25430;BME280;13360;48.152;-1.788;2024-03-06T07:16:24;101783.97;;;6.99;100.00
25430;BME280;13360;48.152;-1.788;2024-03-06T07:18:50;101776.47;;;6.94;100.00
25430;BME280;13360;48.152;-1.788;2024-03-06T07:21:15;101783.41;;;6.97;100.00
25430;BME280;13360;48.152;-1.788;2024-03-06T07:23:40;101776.91;;;7.03;100.00
25430;BME280;13360;48.152;-1.788;2024-03-06T07:26:05;101781.06;;;7.06;100.00
25430;BME280;13360;48.152;-1.788;2024-03-06T07:28:30;101779.25;;;7.11;100.00
25430;BME280;13360;48.152;-1.788;2024-03-06T07:30:55;101779.25;;;7.11;100.00
25430;BME280;13360;48.152;-1.788;2024-03-06T07:33:21;101786.91;;;7.09;100.00
25430;BME280;13360;48.152;-1.788;2024-03-06T07:35:46;101798.50;;;7.11;100.00
25430;BME280;13360;48.152;-1.788;2024-03-06T07:38:11;101787.13;;;7.08;100.00
25430;BME280;13360;48.152;-1.788;2024-03-06T07:40:36;101796.03;;;7.82;100.00
25430;BME280;13360;48.152;-1.788;2024-03-06T07:43:02;101718.78;;;8.27;100.00
25430;BME280;13360;48.152;-1.788;2024-03-06T07:45:27;101721.13;;;8.35;100.00
25430;BME280;13360;48.152;-1.788;2024-03-06T07:47:52;101719.81;;;8.43;100.00
25430;BME280;13360;48.152;-1.788;2024-03-06T07:50:17;101716.72;;;8.34;100.00
25430;BME280;13360;48.152;-1.788;2024-03-06T07:52:46;101734.31;;;8.60;100.00
25430;BME280;13360;48.152;-1.788;2024-03-06T07:55:12;101727.09;;;8.81;100.00
25430;BME280;13360;48.152;-1.788;2024-03-06T07:57:37;101717.75;;;8.82;100.00
25430;BME280;13360;48.152;-1.788;2024-03-06T08:00:03;101742.28;;;8.83;100.00
25430;BME280;13360;48.152;-1.788;2024-03-06T08:02:39;101748.50;;;9.01;100.00
25430;BME280;13360;48.152;-1.788;2024-03-06T08:05:07;101737.47;;;9.01;100.00
25430;BME280;13360;48.152;-1.788;2024-03-06T08:07:34;101727.47;;;8.95;100.00
25430;BME280;13360;48.152;-1.788;2024-03-06T08:10:00;101738.09;;;9.08;100.00
25430;BME280;13360;48.152;-1.788;2024-03-06T08:12:25;101746.38;;;9.13;100.00
25430;BME280;13360;48.152;-1.788;2024-03-06T08:14:50;101751.16;;;9.23;100.00
25430;BME280;13360;48.152;-1.788;2024-03-06T08:17:15;101771.06;;;9.30;100.00
25430;BME280;13360;48.152;-1.788;2024-03-06T08:19:40;101771.38;;;9.33;100.00
25430;BME280;13360;48.152;-1.788;2024-03-06T08:22:06;101755.53;;;8.86;100.00
25430;BME280;13360;48.152;-1.788;2024-03-06T08:24:31;101822.94;;;8.79;100.00
25430;BME280;13360;48.152;-1.788;2024-03-06T08:26:56;101812.81;;;8.84;100.00
25430;BME280;13360;48.152;-1.788;2024-03-06T08:29:22;101812.25;;;8.82;100.00
25430;BME280;13360;48.152;-1.788;2024-03-06T08:31:47;101815.88;;;8.88;100.00
25430;BME280;13360;48.152;-1.788;2024-03-06T08:34:13;101819.72;;;9.14;100.00
25430;BME280;13360;48.152;-1.788;2024-03-06T08:36:38;101812.00;;;9.43;100.00
25430;BME280;13360;48.152;-1.788;2024-03-06T08:39:03;101812.75;;;9.70;100.00
25430;BME280;13360;48.152;-1.788;2024-03-06T08:41:30;101816.84;;;10.00;100.00
25430;BME280;13360;48.152;-1.788;2024-03-06T08:43:56;101809.75;;;10.19;100.00
25430;BME280;13360;48.152;-1.788;2024-03-06T08:46:21;101817.06;;;10.41;100.00
25430;BME280;13360;48.152;-1.788;2024-03-06T08:48:47;101806.91;;;10.61;100.00
25430;BME280;13360;48.152;-1.788;2024-03-06T08:51:12;101821.91;;;10.81;100.00
25430;BME280;13360;48.152;-1.788;2024-03-06T08:53:37;101809.53;;;11.04;100.00
25430;BME280;13360;48.152;-1.788;2024-03-06T08:56:03;101812.31;;;11.14;100.00
25430;BME280;13360;48.152;-1.788;2024-03-06T08:58:29;101811.78;;;11.42;100.00
25430;BME280;13360;48.152;-1.788;2024-03-06T09:00:54;101812.59;;;11.63;100.00
25430;BME280;13360;48.152;-1.788;2024-03-06T09:03:20;101812.59;;;11.94;100.00
25430;BME280;13360;48.152;-1.788;2024-03-06T09:05:45;101812.28;;;12.15;100.00
25430;BME280;13360;48.152;-1.788;2024-03-06T09:08:10;101797.28;;;12.32;100.00
25430;BME280;13360;48.152;-1.788;2024-03-06T09:10:36;101813.25;;;12.55;100.00
25430;BME280;13360;48.152;-1.788;2024-03-06T09:13:02;101817.00;;;12.79;100.00
25430;BME280;13360;48.152;-1.788;2024-03-06T09:15:27;101796.16;;;12.92;100.00
25430;BME280;13360;48.152;-1.788;2024-03-06T09:17:52;101799.31;;;13.20;100.00
25430;BME280;13360;48.152;-1.788;2024-03-06T09:20:17;101801.88;;;13.45;100.00
25430;BME280;13360;48.152;-1.788;2024-03-06T09:22:42;101821.31;;;13.74;100.00
25430;BME280;13360;48.152;-1.788;2024-03-06T09:25:08;101801.06;;;14.02;100.00
25430;BME280;13360;48.152;-1.788;2024-03-06T09:27:33;101803.84;;;14.26;100.00
25430;BME280;13360;48.152;-1.788;2024-03-06T09:29:59;101776.22;;;14.35;100.00
25430;BME280;13360;48.152;-1.788;2024-03-06T09:32:24;101780.19;;;14.53;100.00
25430;BME280;13360;48.152;-1.788;2024-03-06T09:34:51;101777.75;;;14.70;100.00
25430;BME280;13360;48.152;-1.788;2024-03-06T09:37:16;101792.09;;;14.96;100.00
25430;BME280;13360;48.152;-1.788;2024-03-06T09:39:41;101788.50;;;15.14;100.00
25430;BME280;13360;48.152;-1.788;2024-03-06T09:42:07;101780.44;;;15.32;100.00
25430;BME280;13360;48.152;-1.788;2024-03-06T09:44:32;101751.72;;;15.17;100.00
25430;BME280;13360;48.152;-1.788;2024-03-06T09:46:59;101767.75;;;15.39;100.00
25430;BME280;13360;48.152;-1.788;2024-03-06T09:49:25;101767.06;;;15.66;100.00
25430;BME280;13360;48.152;-1.788;2024-03-06T09:51:50;101743.34;;;15.69;100.00
25430;BME280;13360;48.152;-1.788;2024-03-06T09:54:18;101756.44;;;15.82;100.00
25430;BME280;13360;48.152;-1.788;2024-03-06T09:56:44;101760.41;;;15.95;100.00
25430;BME280;13360;48.152;-1.788;2024-03-06T09:59:10;101750.09;;;16.09;100.00
25430;BME280;13360;48.152;-1.788;2024-03-06T10:01:39;101760.50;;;16.31;100.00
25430;BME280;13360;48.152;-1.788;2024-03-06T10:06:47;101772.78;;;16.16;100.00
25430;BME280;13360;48.152;-1.788;2024-03-06T10:09:12;101742.25;;;16.11;100.00
25430;BME280;13360;48.152;-1.788;2024-03-06T10:11:40;101759.75;;;15.70;100.00
25430;BME280;13360;48.152;-1.788;2024-03-06T10:14:07;101789.81;;;16.01;100.00
25430;BME280;13360;48.152;-1.788;2024-03-06T10:16:32;101769.69;;;16.17;100.00
25430;BME280;13360;48.152;-1.788;2024-03-06T10:19:07;101811.22;;;16.46;100.00
25430;BME280;13360;48.152;-1.788;2024-03-06T10:21:40;101819.66;;;16.55;100.00
25430;BME280;13360;48.152;-1.788;2024-03-06T10:24:05;101760.28;;;16.41;100.00
25430;BME280;13360;48.152;-1.788;2024-03-06T10:26:31;101749.75;;;15.97;100.00
25430;BME280;13360;48.152;-1.788;2024-03-06T10:28:56;101796.91;;;15.93;100.00
25430;BME280;13360;48.152;-1.788;2024-03-06T10:31:28;101812.09;;;15.87;100.00
25430;BME280;13360;48.152;-1.788;2024-03-06T10:33:53;101805.97;;;15.71;100.00
25430;BME280;13360;48.152;-1.788;2024-03-06T10:36:18;101821.19;;;15.60;100.00
25430;BME280;13360;48.152;-1.788;2024-03-06T10:38:44;101807.81;;;15.62;100.00
25430;BME280;13360;48.152;-1.788;2024-03-06T10:41:10;101812.16;;;15.68;100.00
25430;BME280;13360;48.152;-1.788;2024-03-06T10:43:38;101813.09;;;15.77;100.00
25430;BME280;13360;48.152;-1.788;2024-03-06T10:46:06;101774.19;;;15.72;100.00
25430;BME280;13360;48.152;-1.788;2024-03-06T10:48:31;101770.78;;;15.62;100.00
25430;BME280;13360;48.152;-1.788;2024-03-06T10:50:57;101813.19;;;15.53;100.00
25430;BME280;13360;48.152;-1.788;2024-03-06T10:53:22;101800.50;;;15.47;100.00
25430;BME280;13360;48.152;-1.788;2024-03-06T10:55:48;101797.56;;;15.39;100.00
25430;BME280;13360;48.152;-1.788;2024-03-06T10:58:14;101812.38;;;15.34;100.00
25430;BME280;13360;48.152;-1.788;2024-03-06T11:00:41;101816.41;;;15.28;100.00
25430;BME280;13360;48.152;-1.788;2024-03-06T11:03:07;101795.25;;;15.27;100.00
25430;BME280;13360;48.152;-1.788;2024-03-06T11:05:36;101798.34;;;15.25;100.00
25430;BME280;13360;48.152;-1.788;2024-03-06T11:08:08;101785.34;;;15.21;100.00
25430;BME280;13360;48.152;-1.788;2024-03-06T11:10:34;101761.56;;;15.29;100.00
25430;BME280;13360;48.152;-1.788;2024-03-06T11:13:01;101765.56;;;15.22;100.00
25430;BME280;13360;48.152;-1.788;2024-03-06T11:15:26;101752.84;;;15.16;100.00
25430;BME280;13360;48.152;-1.788;2024-03-06T11:17:52;101805.56;;;15.27;100.00
25430;BME280;13360;48.152;-1.788;2024-03-06T11:20:19;101802.59;;;15.37;100.00
25430;BME280;13360;48.152;-1.788;2024-03-06T11:28:09;101743.34;;;15.17;100.00
25430;BME280;13360;48.152;-1.788;2024-03-06T11:30:35;101735.41;;;15.11;100.00
25430;BME280;13360;48.152;-1.788;2024-03-06T11:33:12;101791.13;;;15.24;100.00
25430;BME280;13360;48.152;-1.788;2024-03-06T11:35:37;101732.03;;;14.95;100.00
25430;BME280;13360;48.152;-1.788;2024-03-06T11:38:04;101764.28;;;15.15;100.00
25430;BME280;13360;48.152;-1.788;2024-03-06T11:40:31;101734.75;;;15.00;100.00
25430;BME280;13360;48.152;-1.788;2024-03-06T11:42:56;101748.13;;;14.98;100.00
25430;BME280;13360;48.152;-1.788;2024-03-06T11:45:22;101734.59;;;14.91;100.00
25430;BME280;13360;48.152;-1.788;2024-03-06T11:48:00;101745.63;;;14.97;100.00
25430;BME280;13360;48.152;-1.788;2024-03-06T11:50:26;101779.53;;;15.17;100.00
25430;BME280;13360;48.152;-1.788;2024-03-06T11:52:53;101755.84;;;15.20;100.00
25430;BME280;13360;48.152;-1.788;2024-03-06T11:55:20;101762.91;;;15.31;100.00
25430;BME280;13360;48.152;-1.788;2024-03-06T11:57:46;101728.38;;;15.32;100.00
25430;BME280;13360;48.152;-1.788;2024-03-06T12:00:11;101733.31;;;15.35;100.00
25430;BME280;13360;48.152;-1.788;2024-03-06T12:02:37;101737.59;;;15.46;100.00
25430;BME280;13360;48.152;-1.788;2024-03-06T12:05:02;101750.81;;;15.54;100.00
25430;BME280;13360;48.152;-1.788;2024-03-06T12:07:30;101741.94;;;15.52;100.00
25430;BME280;13360;48.152;-1.788;2024-03-06T12:09:57;101736.44;;;15.66;100.00
25430;BME280;13360;48.152;-1.788;2024-03-06T12:12:22;101754.78;;;15.81;100.00
25430;BME280;13360;48.152;-1.788;2024-03-06T12:14:57;101782.06;;;15.84;100.00
25430;BME280;13360;48.152;-1.788;2024-03-06T12:17:24;101777.38;;;15.79;100.00
25430;BME280;13360;48.152;-1.788;2024-03-06T12:19:49;101734.03;;;15.60;100.00
25430;BME280;13360;48.152;-1.788;2024-03-06T12:22:15;101767.19;;;15.75;100.00
25430;BME280;13360;48.152;-1.788;2024-03-06T12:24:40;101715.28;;;15.65;100.00
25430;BME280;13360;48.152;-1.788;2024-03-06T12:27:06;101724.81;;;15.45;100.00
25430;BME280;13360;48.152;-1.788;2024-03-06T12:29:32;101731.41;;;15.49;100.00
25430;BME280;13360;48.152;-1.788;2024-03-06T12:32:01;101729.13;;;15.51;100.00
25430;BME280;13360;48.152;-1.788;2024-03-06T12:34:27;101735.44;;;15.57;100.00
25430;BME280;13360;48.152;-1.788;2024-03-06T12:36:53;101718.72;;;15.57;100.00
25430;BME280;13360;48.152;-1.788;2024-03-06T12:39:18;101717.06;;;15.42;100.00